createdAt,value
2019-03-24T00:00:03.252Z,45.03
2019-03-24T00:02:31.742Z,49.37
2019-03-24T00:05:00.328Z,42.83
2019-03-24T00:07:28.786Z,40.43
2019-03-24T00:09:57.231Z,43.93
2019-03-24T00:12:25.669Z,46.33
2019-03-24T00:14:54.126Z,45.50
2019-03-24T00:17:22.631Z,48.00
2019-03-24T00:19:51.088Z,50.37
2019-03-24T00:22:19.527Z,49.70
2019-03-24T00:24:47.978Z,47.37
2019-03-24T00:27:16.427Z,42.13
2019-03-24T00:29:44.881Z,40.63
2019-03-24T00:32:13.319Z,42.27
2019-03-24T00:34:41.793Z,40.20
2019-03-24T00:37:10.312Z,43.40
2019-03-24T00:39:39.832Z,42.90
2019-03-24T00:42:08.285Z,42.37
2019-03-24T00:44:36.771Z,42.47
2019-03-24T00:47:05.287Z,42.40
2019-03-24T00:49:33.767Z,42.80
2019-03-24T00:52:02.311Z,42.07
2019-03-24T00:54:30.763Z,43.97
2019-03-24T00:56:59.201Z,45.00
2019-03-24T00:59:27.667Z,44.97
2019-03-24T01:01:56.123Z,44.43
2019-03-24T01:04:24.652Z,44.77
2019-03-24T01:06:53.231Z,44.10
2019-03-24T01:09:21.692Z,43.30
2019-03-24T01:11:50.198Z,105.67
2019-03-24T01:14:18.663Z,46.80
2019-03-24T01:16:47.119Z,38.97
2019-03-24T01:19:15.582Z,38.50
2019-03-24T01:21:44.056Z,40.17
2019-03-24T01:24:12.513Z,35.37
2019-03-24T01:26:40.963Z,34.43
2019-03-24T01:29:09.427Z,35.07
2019-03-24T01:31:38.008Z,29.73
2019-03-24T01:34:06.463Z,34.67
2019-03-24T01:36:34.922Z,29.73
2019-03-24T01:39:04.701Z,34.97
2019-03-24T01:41:33.191Z,42.77
2019-03-24T01:44:01.674Z,30.97
2019-03-24T01:46:30.136Z,28.83
2019-03-24T01:48:58.604Z,28.60
2019-03-24T01:51:27.048Z,29.40
2019-03-24T01:53:55.497Z,29.30
2019-03-24T01:56:23.967Z,37.10
2019-03-24T01:58:52.423Z,32.60
2019-03-24T02:01:20.868Z,33.10
2019-03-24T02:03:49.315Z,58.00
2019-03-24T02:06:17.813Z,30.07
2019-03-24T02:08:46.286Z,27.83
2019-03-24T02:11:14.738Z,29.63
2019-03-24T02:13:43.174Z,26.80
2019-03-24T02:16:11.634Z,26.13
2019-03-24T02:18:40.098Z,28.17
2019-03-24T02:21:08.542Z,29.17
2019-03-24T02:23:37.000Z,27.30
2019-03-24T02:26:05.529Z,30.67
2019-03-24T02:28:34.026Z,30.57
2019-03-24T02:31:02.789Z,29.80
2019-03-24T02:33:31.323Z,30.50
2019-03-24T02:35:59.797Z,28.43
2019-03-24T02:38:28.248Z,29.20
2019-03-24T02:40:58.358Z,29.37
2019-03-24T02:43:26.885Z,33.10
2019-03-24T02:45:55.344Z,30.20
2019-03-24T02:48:23.798Z,30.60
2019-03-24T02:50:52.320Z,32.03
2019-03-24T02:53:20.780Z,31.07
2019-03-24T02:55:49.317Z,32.97
2019-03-24T02:58:17.775Z,33.37
2019-03-24T03:00:46.244Z,30.87
2019-03-24T03:03:14.774Z,30.57
2019-03-24T03:05:43.226Z,33.07
2019-03-24T03:08:11.677Z,34.07
2019-03-24T03:10:40.138Z,31.30
2019-03-24T03:13:08.585Z,34.13
2019-03-24T03:15:37.023Z,32.97
2019-03-24T03:18:05.477Z,35.30
2019-03-24T03:20:33.927Z,37.20
2019-03-24T03:23:02.477Z,31.43
2019-03-24T03:25:30.931Z,31.73
2019-03-24T03:27:59.640Z,25.90
2019-03-24T03:30:28.354Z,28.37
2019-03-24T03:32:56.893Z,26.97
2019-03-24T03:35:25.338Z,25.67
2019-03-24T03:37:54.096Z,24.93
2019-03-24T03:40:22.612Z,28.80
2019-03-24T03:42:51.079Z,28.83
2019-03-24T03:45:27.767Z,25.13
2019-03-24T03:47:56.411Z,35.37
2019-03-24T03:50:24.935Z,27.23
2019-03-24T03:52:53.560Z,24.20
2019-03-24T03:55:22.041Z,23.90
2019-03-24T03:57:50.935Z,22.63
2019-03-24T04:02:56.813Z,21.87
2019-03-24T04:05:25.312Z,20.73
2019-03-24T04:07:53.899Z,22.30
2019-03-24T04:10:22.378Z,17.53
2019-03-24T04:12:50.819Z,20.23
2019-03-24T04:15:19.380Z,19.30
2019-03-24T04:17:47.910Z,23.03
2019-03-24T04:20:16.477Z,17.90
2019-03-24T04:22:45.005Z,17.57
2019-03-24T04:25:13.484Z,18.93
2019-03-24T04:27:41.956Z,18.03
2019-03-24T04:30:10.867Z,19.00
2019-03-24T04:32:39.360Z,17.50
2019-03-24T04:35:09.565Z,17.07
2019-03-24T04:37:38.087Z,17.77
2019-03-24T04:40:07.264Z,16.50
2019-03-24T04:42:35.722Z,16.53
2019-03-24T04:45:06.027Z,17.83
2019-03-24T04:47:34.545Z,16.40
2019-03-24T04:50:03.071Z,16.00
2019-03-24T04:52:31.514Z,20.30
2019-03-24T04:54:59.974Z,15.67
2019-03-24T04:57:28.449Z,15.00
2019-03-24T04:59:56.905Z,15.37
2019-03-24T05:02:25.354Z,14.50
2019-03-24T05:04:53.899Z,14.37
2019-03-24T05:07:22.409Z,17.90
2019-03-24T05:09:50.905Z,16.60
2019-03-24T05:12:19.353Z,15.23
2019-03-24T05:14:47.823Z,14.23
2019-03-24T05:17:26.509Z,15.30
2019-03-24T05:19:46.484Z,15.93
2019-03-24T05:22:15.047Z,16.90
2019-03-24T05:24:43.494Z,16.00
2019-03-24T05:27:11.966Z,19.43
2019-03-24T05:29:40.422Z,16.57
2019-03-24T05:32:08.866Z,17.77
2019-03-24T05:34:37.339Z,15.40
2019-03-24T05:37:05.800Z,16.13
2019-03-24T05:39:34.272Z,17.97
2019-03-24T05:42:02.807Z,16.10
2019-03-24T05:44:31.243Z,16.07
2019-03-24T05:46:59.712Z,17.23
2019-03-24T05:49:28.153Z,39.60
2019-03-24T05:51:56.643Z,15.60
2019-03-24T05:54:25.081Z,15.40
2019-03-24T05:56:53.529Z,16.90
2019-03-24T05:59:21.968Z,15.53
2019-03-24T06:01:50.443Z,17.47
2019-03-24T06:04:18.895Z,15.83
2019-03-24T06:06:47.344Z,19.50
2019-03-24T06:09:15.814Z,14.17
2019-03-24T06:11:44.280Z,16.03
2019-03-24T06:14:12.825Z,15.53
2019-03-24T06:16:41.257Z,16.00
2019-03-24T06:19:09.731Z,15.17
2019-03-24T06:21:38.175Z,14.40
2019-03-24T06:24:06.650Z,13.77
2019-03-24T06:26:35.128Z,14.20
2019-03-24T06:29:04.874Z,12.70
2019-03-24T06:31:33.338Z,13.57
2019-03-24T06:34:01.780Z,13.40
2019-03-24T06:36:30.281Z,12.87
2019-03-24T06:38:58.767Z,11.40
2019-03-24T06:41:27.336Z,14.07
2019-03-24T06:43:55.807Z,12.40
2019-03-24T06:46:24.331Z,12.97
2019-03-24T06:48:52.791Z,13.17
2019-03-24T06:51:21.231Z,12.63
2019-03-24T06:53:49.690Z,12.43
2019-03-24T06:56:18.146Z,12.60
2019-03-24T06:58:46.679Z,13.43
2019-03-24T07:01:15.131Z,12.90
2019-03-24T07:03:43.939Z,13.40
2019-03-24T07:06:12.420Z,12.67
2019-03-24T07:08:40.948Z,12.20
2019-03-24T07:11:13.508Z,12.67
2019-03-24T07:13:39.652Z,13.77
2019-03-24T07:16:08.160Z,11.67
2019-03-24T07:18:36.604Z,11.87
2019-03-24T07:21:05.067Z,11.70
2019-03-24T07:23:33.510Z,12.17
2019-03-24T07:26:01.956Z,12.40
2019-03-24T07:28:30.411Z,10.33
2019-03-24T07:30:58.966Z,10.90
2019-03-24T07:33:27.425Z,10.23
2019-03-24T07:35:55.881Z,10.10
2019-03-24T07:38:24.666Z,10.10
2019-03-24T07:40:53.115Z,11.00
2019-03-24T07:43:21.576Z,9.57
2019-03-24T07:45:50.058Z,10.20
2019-03-24T07:48:19.483Z,10.60
2019-03-24T07:50:48.101Z,10.67
2019-03-24T07:53:16.589Z,11.40
2019-03-24T07:55:45.048Z,12.70
2019-03-24T07:58:13.809Z,9.87
2019-03-24T08:00:42.256Z,10.00
2019-03-24T08:03:10.725Z,10.10
2019-03-24T08:05:39.172Z,10.40
2019-03-24T08:08:07.629Z,9.40
2019-03-24T08:10:36.074Z,9.90
2019-03-24T08:13:04.543Z,9.83
2019-03-24T08:15:32.993Z,10.00
2019-03-24T08:18:01.529Z,9.07
2019-03-24T08:20:30.048Z,7.27
2019-03-24T08:22:58.492Z,8.03
2019-03-24T08:25:26.950Z,9.23
2019-03-24T08:27:55.479Z,8.10
2019-03-24T08:30:32.998Z,8.07
2019-03-24T08:33:01.721Z,8.70
2019-03-24T08:35:30.227Z,8.77
2019-03-24T08:37:58.662Z,9.50
2019-03-24T08:40:27.366Z,9.10
2019-03-24T08:42:55.820Z,8.93
2019-03-24T08:45:28.364Z,9.10
2019-03-24T08:47:58.240Z,7.83
2019-03-24T08:50:26.691Z,8.27
2019-03-24T08:52:55.222Z,7.60
2019-03-24T08:55:23.783Z,8.40
2019-03-24T08:57:52.295Z,8.13
2019-03-24T09:00:30.114Z,8.17
2019-03-24T09:02:50.975Z,8.73
2019-03-24T09:05:19.465Z,7.47
2019-03-24T09:07:47.917Z,8.60
2019-03-24T09:10:16.486Z,8.90
2019-03-24T09:12:44.937Z,8.77
2019-03-24T09:15:13.616Z,8.33
2019-03-24T09:17:42.098Z,8.27
2019-03-24T09:20:10.837Z,8.90
2019-03-24T09:22:39.336Z,7.53
2019-03-24T09:25:09.116Z,7.50
2019-03-24T09:27:37.582Z,7.23
2019-03-24T09:30:14.943Z,8.47
2019-03-24T09:32:43.407Z,8.47
2019-03-24T09:35:11.911Z,6.67
2019-03-24T09:37:40.359Z,8.37
2019-03-24T09:40:11.869Z,8.03
2019-03-24T09:42:40.311Z,8.90
2019-03-24T09:45:08.895Z,7.93
2019-03-24T09:47:37.342Z,6.53
2019-03-24T09:50:06.214Z,7.27
2019-03-24T09:52:34.646Z,7.83
2019-03-24T09:55:03.097Z,8.63
2019-03-24T09:57:31.543Z,7.90
2019-03-24T09:59:59.997Z,8.10
2019-03-24T10:02:28.423Z,8.60
2019-03-24T10:04:56.871Z,7.20
2019-03-24T10:07:25.315Z,7.83
2019-03-24T10:09:53.758Z,7.73
2019-03-24T10:12:22.195Z,6.00
2019-03-24T10:14:50.636Z,6.70
2019-03-24T10:17:19.075Z,7.40
2019-03-24T10:19:47.534Z,7.07
2019-03-24T10:22:15.974Z,7.23
2019-03-24T10:24:44.434Z,7.13
2019-03-24T10:27:12.879Z,6.70
2019-03-24T10:29:41.407Z,7.87
2019-03-24T10:32:09.842Z,7.20
2019-03-24T10:34:38.307Z,8.10
2019-03-24T10:37:06.772Z,6.77
2019-03-24T10:39:35.278Z,8.00
2019-03-24T10:42:03.803Z,6.70
2019-03-24T10:44:32.234Z,7.30
2019-03-24T10:47:00.686Z,6.73
2019-03-24T10:49:29.121Z,7.17
2019-03-24T10:51:57.571Z,7.20
2019-03-24T10:54:26.872Z,7.13
2019-03-24T10:56:55.314Z,7.87
2019-03-24T10:59:23.756Z,7.87
2019-03-24T11:01:52.324Z,7.30
2019-03-24T11:04:20.839Z,8.83
2019-03-24T11:06:49.593Z,8.43
2019-03-24T11:09:18.029Z,7.23
2019-03-24T11:11:47.035Z,7.43
2019-03-24T11:14:15.470Z,6.87
2019-03-24T11:16:43.919Z,7.00
2019-03-24T11:19:12.366Z,6.80
2019-03-24T11:21:40.808Z,8.60
2019-03-24T11:24:09.252Z,6.73
2019-03-24T11:26:37.685Z,8.43
2019-03-24T11:29:06.199Z,7.47
2019-03-24T11:31:34.643Z,9.63
2019-03-24T11:34:03.121Z,8.00
2019-03-24T11:36:31.563Z,7.07
2019-03-24T11:39:00.099Z,7.33
2019-03-24T11:41:28.540Z,7.10
2019-03-24T11:43:56.982Z,8.10
2019-03-24T11:46:25.436Z,7.40
2019-03-24T11:48:53.873Z,7.90
2019-03-24T11:51:22.334Z,7.10
2019-03-24T11:53:50.819Z,6.80
2019-03-24T11:56:19.266Z,7.40
2019-03-24T11:58:47.764Z,6.90
2019-03-24T12:01:16.217Z,6.80
2019-03-24T12:03:44.650Z,7.67
2019-03-24T12:06:14.791Z,7.77
2019-03-24T12:08:43.248Z,6.40
2019-03-24T12:11:11.677Z,6.87
2019-03-24T12:13:40.135Z,7.30
2019-03-24T12:16:08.589Z,6.00
2019-03-24T12:18:37.043Z,5.23
2019-03-24T12:21:05.490Z,6.57
2019-03-24T12:23:34.151Z,6.30
2019-03-24T12:26:02.661Z,7.80
2019-03-24T12:28:31.107Z,6.07
2019-03-24T12:31:02.238Z,5.83
2019-03-24T12:33:30.837Z,5.10
2019-03-24T12:35:59.270Z,6.07
2019-03-24T12:38:27.736Z,5.97
2019-03-24T12:40:56.176Z,6.40
2019-03-24T12:43:24.623Z,6.00
2019-03-24T12:45:53.067Z,6.83
2019-03-24T12:48:21.632Z,6.17
2019-03-24T12:50:50.109Z,7.03
2019-03-24T12:53:18.961Z,6.17
2019-03-24T12:55:47.402Z,6.30
2019-03-24T12:58:16.129Z,6.97
2019-03-24T13:00:44.647Z,7.00
2019-03-24T13:03:13.106Z,5.80
2019-03-24T13:05:41.551Z,6.83
2019-03-24T13:08:14.226Z,7.50
2019-03-24T13:10:43.712Z,6.13
2019-03-24T13:13:12.451Z,6.10
2019-03-24T13:15:41.162Z,6.80
2019-03-24T13:18:09.692Z,5.43
2019-03-24T13:20:38.848Z,5.80
2019-03-24T13:23:07.551Z,6.00
2019-03-24T13:25:36.459Z,4.77
2019-03-24T13:28:05.080Z,4.83
2019-03-24T13:30:33.518Z,5.17
2019-03-24T13:33:02.105Z,5.30
2019-03-24T13:35:30.553Z,7.33
2019-03-24T13:37:59.414Z,7.00
2019-03-24T13:40:27.851Z,6.53
2019-03-24T13:42:56.302Z,5.50
2019-03-24T13:45:25.691Z,7.17
2019-03-24T13:47:54.230Z,7.27
2019-03-24T13:50:30.917Z,7.53
2019-03-24T13:52:52.847Z,7.00
2019-03-24T13:55:21.295Z,6.57
2019-03-24T13:57:49.745Z,6.80
2019-03-24T14:00:18.543Z,6.13
2019-03-24T14:02:47.066Z,7.40
2019-03-24T14:05:15.501Z,6.33
2019-03-24T14:07:44.107Z,5.33
2019-03-24T14:10:12.624Z,5.80
2019-03-24T14:12:41.059Z,5.50
2019-03-24T14:15:10.149Z,5.73
2019-03-24T14:17:38.596Z,5.30
2019-03-24T14:20:07.475Z,6.10
2019-03-24T14:22:35.903Z,6.10
2019-03-24T14:25:06.339Z,6.10
2019-03-24T14:27:34.861Z,6.20
2019-03-24T14:30:04.483Z,7.30
2019-03-24T14:32:32.918Z,5.30
2019-03-24T14:35:01.653Z,4.73
2019-03-24T14:37:30.091Z,6.27
2019-03-24T14:39:58.539Z,5.53
2019-03-24T14:42:26.989Z,5.13
2019-03-24T14:44:55.491Z,5.70
2019-03-24T14:47:23.932Z,4.87
2019-03-24T14:49:52.387Z,5.80
2019-03-24T14:52:20.817Z,5.67
2019-03-24T14:54:49.307Z,5.60
2019-03-24T14:57:17.753Z,5.40
2019-03-24T14:59:46.208Z,7.50
2019-03-24T15:02:14.650Z,5.73
2019-03-24T15:04:43.120Z,6.10
2019-03-24T15:07:11.545Z,5.30
2019-03-24T15:09:40.388Z,6.37
2019-03-24T15:12:08.831Z,5.70
2019-03-24T15:14:37.982Z,5.30
2019-03-24T15:17:06.424Z,5.87
2019-03-24T15:19:34.938Z,4.83
2019-03-24T15:22:03.383Z,6.33
2019-03-24T15:24:31.856Z,4.83
2019-03-24T15:27:00.305Z,4.70
2019-03-24T15:29:28.756Z,4.43
2019-03-24T15:31:57.260Z,4.80
2019-03-24T15:34:25.698Z,3.57
2019-03-24T15:36:54.149Z,4.50
2019-03-24T15:39:22.608Z,3.30
2019-03-24T15:41:51.051Z,4.47
2019-03-24T15:44:19.495Z,3.70
2019-03-24T15:46:47.937Z,3.53
2019-03-24T15:49:16.375Z,3.80
2019-03-24T15:51:44.818Z,3.03
2019-03-24T15:54:13.452Z,3.73
2019-03-24T15:56:41.999Z,3.27
2019-03-24T15:59:10.452Z,3.50
2019-03-24T16:01:38.951Z,3.87
2019-03-24T16:04:07.411Z,4.20
2019-03-24T16:06:35.851Z,3.63
2019-03-24T16:09:06.946Z,3.83
2019-03-24T16:11:35.393Z,3.63
2019-03-24T16:14:03.857Z,4.00
2019-03-24T16:16:32.320Z,4.27
2019-03-24T16:19:00.830Z,3.47
2019-03-24T16:21:31.256Z,3.17
2019-03-24T16:23:59.475Z,3.20
2019-03-24T16:26:27.901Z,3.13
2019-03-24T16:28:56.363Z,3.20
2019-03-24T16:31:24.789Z,3.67
2019-03-24T16:33:53.255Z,4.10
2019-03-24T16:36:21.691Z,2.53
2019-03-24T16:38:50.135Z,3.20
2019-03-24T16:41:18.602Z,2.93
2019-03-24T16:43:47.368Z,2.37
2019-03-24T16:46:15.819Z,2.80
2019-03-24T16:48:44.246Z,3.00
2019-03-24T16:51:13.535Z,3.13
2019-03-24T16:53:41.967Z,2.70
2019-03-24T16:56:10.559Z,2.93
2019-03-24T16:58:38.997Z,2.50
2019-03-24T17:01:08.319Z,2.07
2019-03-24T17:03:36.771Z,2.40
2019-03-24T17:06:05.294Z,2.90
2019-03-24T17:08:33.734Z,3.50
2019-03-24T17:11:02.201Z,2.60
2019-03-24T17:13:30.629Z,2.23
2019-03-24T17:15:59.102Z,2.10
2019-03-24T17:18:27.547Z,2.10
2019-03-24T17:20:56.066Z,1.70
2019-03-24T17:23:24.508Z,1.70
2019-03-24T17:25:52.988Z,1.70
2019-03-24T17:28:21.428Z,1.87
2019-03-24T17:30:49.887Z,1.67
2019-03-24T17:33:18.328Z,1.70
2019-03-24T17:35:47.104Z,1.23
2019-03-24T17:38:15.539Z,2.00
2019-03-24T17:40:44.000Z,1.20
2019-03-24T17:43:12.440Z,1.70
2019-03-24T17:45:40.929Z,1.90
2019-03-24T17:48:09.382Z,1.53
2019-03-24T17:50:37.844Z,1.63
2019-03-24T17:53:06.996Z,1.90
2019-03-24T17:55:35.843Z,1.93
2019-03-24T17:58:04.824Z,2.43
2019-03-24T18:00:46.180Z,1.97
2019-03-24T18:03:14.609Z,1.60
2019-03-24T18:05:43.069Z,2.27
2019-03-24T18:08:11.540Z,3.17
2019-03-24T18:10:40.093Z,2.40
2019-03-24T18:13:08.527Z,2.77
2019-03-24T18:15:36.994Z,1.97
2019-03-24T18:18:05.442Z,1.60
2019-03-24T18:20:34.964Z,3.50
2019-03-24T18:23:03.461Z,3.47
2019-03-24T18:25:31.910Z,2.90
2019-03-24T18:28:00.371Z,2.10
2019-03-24T18:30:28.837Z,2.63
2019-03-24T18:32:57.278Z,2.00
2019-03-24T18:35:26.614Z,2.80
2019-03-24T18:37:55.059Z,1.90
2019-03-24T18:40:23.534Z,2.37
2019-03-24T18:42:52.137Z,1.87
2019-03-24T18:45:20.822Z,1.60
2019-03-24T18:47:49.291Z,1.50
2019-03-24T18:50:17.743Z,2.00
2019-03-24T18:52:46.184Z,1.97
2019-03-24T18:55:14.891Z,1.40
2019-03-24T18:57:43.495Z,2.53
2019-03-24T19:00:13.489Z,1.60
2019-03-24T19:02:41.920Z,1.90
2019-03-24T19:05:10.446Z,2.30
2019-03-24T19:07:38.937Z,2.60
2019-03-24T19:10:13.050Z,2.90
2019-03-24T19:12:41.495Z,2.03
2019-03-24T19:15:12.497Z,1.90
2019-03-24T19:17:41.012Z,2.37
2019-03-24T19:20:09.799Z,2.20
2019-03-24T19:22:38.274Z,2.40
2019-03-24T19:25:07.582Z,1.73
2019-03-24T19:27:36.455Z,1.90
2019-03-24T19:30:09.575Z,2.07
2019-03-24T19:32:38.199Z,2.60
2019-03-24T19:35:08.257Z,1.93
2019-03-24T19:37:37.283Z,2.40
2019-03-24T19:40:14.638Z,2.60
2019-03-24T19:42:43.095Z,2.20
2019-03-24T19:45:11.599Z,2.97
2019-03-24T19:47:40.055Z,2.50
2019-03-24T19:50:08.507Z,2.00
2019-03-24T19:52:44.710Z,2.13
2019-03-24T19:55:07.287Z,3.37
2019-03-24T19:57:36.104Z,2.53
2019-03-24T20:00:07.524Z,3.23
2019-03-24T20:02:35.983Z,3.00
2019-03-24T20:05:05.514Z,3.30
2019-03-24T20:07:33.980Z,3.13
2019-03-24T20:10:02.412Z,2.90
2019-03-24T20:12:30.861Z,2.57
2019-03-24T20:14:59.305Z,3.70
2019-03-24T20:17:27.787Z,3.47
2019-03-24T20:19:56.293Z,3.60
2019-03-24T20:22:24.753Z,3.67
2019-03-24T20:24:53.219Z,3.40
2019-03-24T20:27:21.807Z,2.80
2019-03-24T20:29:50.241Z,3.30
2019-03-24T20:32:18.768Z,3.20
2019-03-24T20:34:47.207Z,4.53
2019-03-24T20:37:15.681Z,3.07
2019-03-24T20:39:44.175Z,3.50
2019-03-24T20:42:12.683Z,2.93
2019-03-24T20:44:41.161Z,2.90
2019-03-24T20:47:09.603Z,3.30
2019-03-24T20:49:38.066Z,2.93
2019-03-24T20:52:06.486Z,2.73
2019-03-24T20:54:34.924Z,2.67
2019-03-24T20:57:03.427Z,2.37
2019-03-24T20:59:31.883Z,2.73
2019-03-24T21:02:00.319Z,3.27
2019-03-24T21:04:28.758Z,2.70
2019-03-24T21:06:57.224Z,2.63
2019-03-24T21:09:25.667Z,5.03
2019-03-24T21:11:54.110Z,3.30
2019-03-24T21:14:22.575Z,2.80
2019-03-24T21:16:51.005Z,3.20
2019-03-24T21:19:19.460Z,2.67
2019-03-24T21:21:48.010Z,3.10
2019-03-24T21:24:16.522Z,3.13
2019-03-24T21:26:45.003Z,2.57
2019-03-24T21:29:13.441Z,2.47
2019-03-24T21:31:41.898Z,2.40
2019-03-24T21:34:10.395Z,2.93
2019-03-24T21:36:38.842Z,3.10
2019-03-24T21:39:08.039Z,2.50
2019-03-24T21:41:36.659Z,2.97
2019-03-24T21:44:05.426Z,2.00
2019-03-24T21:46:33.855Z,2.33
2019-03-24T21:49:02.302Z,2.83
2019-03-24T21:51:30.737Z,2.33
2019-03-24T21:53:59.187Z,3.30
2019-03-24T21:56:27.631Z,2.70
2019-03-24T21:58:56.158Z,2.27
2019-03-24T22:01:24.678Z,2.17
2019-03-24T22:03:53.122Z,1.63
2019-03-24T22:06:21.566Z,1.60
2019-03-24T22:08:50.028Z,2.33
2019-03-24T22:11:18.462Z,1.70
2019-03-24T22:13:46.970Z,2.33
2019-03-24T22:16:15.414Z,3.40
2019-03-24T22:18:43.869Z,2.00
2019-03-24T22:21:12.379Z,2.50
2019-03-24T22:23:51.586Z,2.53
2019-03-24T22:26:11.071Z,2.50
2019-03-24T22:28:39.535Z,3.57
2019-03-24T22:31:08.044Z,3.27
2019-03-24T22:33:36.520Z,3.03
2019-03-24T22:36:05.027Z,3.40
2019-03-24T22:38:33.480Z,3.50
2019-03-24T22:41:01.926Z,3.83
2019-03-24T22:43:30.374Z,2.93
2019-03-24T22:45:58.805Z,3.33
2019-03-24T22:48:27.267Z,3.67
2019-03-24T22:50:55.711Z,3.27
2019-03-24T22:53:24.151Z,4.57
2019-03-24T22:55:52.631Z,4.87
2019-03-24T22:58:21.083Z,3.90
2019-03-24T23:00:51.523Z,3.70
2019-03-24T23:03:21.803Z,3.90
2019-03-24T23:05:50.373Z,4.00
2019-03-24T23:08:18.821Z,4.40
2019-03-24T23:10:47.259Z,4.23
2019-03-24T23:13:15.787Z,4.30
2019-03-24T23:15:44.290Z,3.83
2019-03-24T23:18:13.539Z,3.73
2019-03-24T23:20:41.982Z,4.00
2019-03-24T23:23:10.453Z,3.17
2019-03-24T23:25:38.912Z,3.40
2019-03-24T23:28:07.405Z,4.60
2019-03-24T23:30:35.923Z,3.10
2019-03-24T23:33:04.894Z,3.30
2019-03-24T23:35:33.353Z,3.43
2019-03-24T23:38:01.816Z,3.57
2019-03-24T23:40:30.347Z,3.50
2019-03-24T23:42:58.781Z,4.00
2019-03-24T23:45:27.259Z,4.47
2019-03-24T23:47:55.718Z,3.67
2019-03-24T23:50:24.187Z,4.00
2019-03-24T23:52:52.643Z,4.13
2019-03-24T23:55:21.097Z,3.00
2019-03-24T23:57:49.542Z,3.37
